createdAt,value
2022-11-16T00:02:14.101Z,11.73
2022-11-16T00:04:41.935Z,11.74
2022-11-16T00:07:09.302Z,11.74
2022-11-16T00:09:36.877Z,11.73
2022-11-16T00:12:07.629Z,11.77
2022-11-16T00:14:36.217Z,11.76
2022-11-16T00:17:04.276Z,11.77
2022-11-16T00:19:31.657Z,11.77
2022-11-16T00:21:59.077Z,11.75
2022-11-16T00:24:26.194Z,11.75
2022-11-16T00:26:55.047Z,11.77
2022-11-16T00:29:25.950Z,11.77
2022-11-16T00:31:53.944Z,11.77
2022-11-16T00:34:22.489Z,11.78
2022-11-16T00:36:50.573Z,11.80
2022-11-16T00:39:19.203Z,11.80
2022-11-16T00:41:47.735Z,11.80
2022-11-16T00:44:15.086Z,11.81
2022-11-16T00:46:42.512Z,11.81
2022-11-16T00:49:09.851Z,11.80
2022-11-16T00:51:37.841Z,11.82
2022-11-16T00:54:07.973Z,11.82
2022-11-16T00:56:37.242Z,11.82
2022-11-16T00:59:05.719Z,11.81
2022-11-16T01:01:33.254Z,11.83
2022-11-16T01:04:00.425Z,11.82
2022-11-16T01:06:27.350Z,11.83
2022-11-16T01:08:54.290Z,11.84
2022-11-16T01:11:42.586Z,11.82
2022-11-16T01:14:10.875Z,11.81
2022-11-16T01:16:37.985Z,11.79
2022-11-16T01:19:05.767Z,11.79
2022-11-16T01:21:33.993Z,11.81
2022-11-16T01:24:01.299Z,11.81
2022-11-16T01:26:28.282Z,11.82
2022-11-16T01:28:55.899Z,11.82
2022-11-16T01:31:23.093Z,11.82
2022-11-16T01:33:51.767Z,11.81
2022-11-16T01:36:24.754Z,11.80
2022-11-16T01:38:53.109Z,11.81
2022-11-16T01:41:26.008Z,11.81
2022-11-16T01:44:04.327Z,11.80
2022-11-16T01:46:37.816Z,11.82
2022-11-16T01:49:12.228Z,11.81
2022-11-16T01:51:42.754Z,11.80
2022-11-16T01:54:13.163Z,11.81
2022-11-16T01:56:52.194Z,11.81
2022-11-16T01:59:30.184Z,11.83
2022-11-16T02:02:02.673Z,11.81
2022-11-16T02:04:30.350Z,11.78
2022-11-16T02:07:18.745Z,11.78
2022-11-16T02:10:20.819Z,11.78
2022-11-16T02:13:00.992Z,11.77
2022-11-16T02:15:46.224Z,11.75
2022-11-16T02:18:55.188Z,11.77
2022-11-16T02:21:43.247Z,11.77
2022-11-16T02:24:45.810Z,11.75
2022-11-16T02:27:57.738Z,11.73
2022-11-16T02:30:25.192Z,11.72
2022-11-16T02:33:08.244Z,11.74
2022-11-16T02:35:50.954Z,11.75
2022-11-16T02:38:24.074Z,11.74
2022-11-16T02:40:58.915Z,11.75
2022-11-16T02:43:53.900Z,11.74
2022-11-16T02:46:37.276Z,11.74
2022-11-16T02:49:15.401Z,11.74
2022-11-16T02:51:43.108Z,11.73
2022-11-16T02:54:16.196Z,11.74
2022-11-16T02:57:28.971Z,11.76
2022-11-16T02:59:59.166Z,11.73
2022-11-16T03:02:29.972Z,11.73
2022-11-16T03:05:07.286Z,11.74
2022-11-16T03:08:05.317Z,11.75
2022-11-16T03:10:57.792Z,11.75
2022-11-16T03:13:30.168Z,11.76
2022-11-16T03:16:03.389Z,11.76
2022-11-16T03:18:31.849Z,11.77
2022-11-16T03:21:15.406Z,11.79
2022-11-16T03:23:45.826Z,11.78
2022-11-16T03:26:19.418Z,11.78
2022-11-16T03:29:03.077Z,11.78
2022-11-16T03:31:39.317Z,11.73
2022-11-16T03:34:12.686Z,11.77
2022-11-16T03:36:43.022Z,11.75
2022-11-16T03:39:33.503Z,11.78
2022-11-16T03:42:07.603Z,11.76
2022-11-16T03:44:35.699Z,11.77
2022-11-16T03:47:05.682Z,11.78
2022-11-16T03:49:32.831Z,11.78
2022-11-16T03:51:59.993Z,11.78
2022-11-16T03:54:29.022Z,11.78
2022-11-16T03:56:55.891Z,11.78
2022-11-16T03:59:23.297Z,11.77
2022-11-16T04:01:50.332Z,11.77
2022-11-16T04:04:35.761Z,11.78
2022-11-16T04:07:22.709Z,11.76
2022-11-16T04:10:08.501Z,11.76
2022-11-16T04:12:53.940Z,11.77
2022-11-16T04:15:39.395Z,11.75
2022-11-16T04:18:27.226Z,11.72
2022-11-16T04:21:13.388Z,11.70
2022-11-16T04:23:59.307Z,11.69
2022-11-16T04:26:45.868Z,11.67
2022-11-16T04:29:14.082Z,11.68
2022-11-16T04:31:59.612Z,11.70
2022-11-16T04:34:46.341Z,11.68
2022-11-16T04:37:36.922Z,11.68
2022-11-16T04:40:06.019Z,11.67
2022-11-16T04:42:32.961Z,11.69
2022-11-16T04:45:18.384Z,11.69
2022-11-16T04:47:52.123Z,11.70
2022-11-16T04:50:21.810Z,11.71
2022-11-16T04:52:50.246Z,11.72
2022-11-16T04:55:17.486Z,11.73
2022-11-16T04:57:46.238Z,11.78
2022-11-16T05:00:14.552Z,11.75
2022-11-16T05:02:41.720Z,11.72
2022-11-16T05:05:09.320Z,11.75
2022-11-16T05:07:40.312Z,11.74
2022-11-16T05:10:14.249Z,11.70
2022-11-16T05:12:41.836Z,11.70
2022-11-16T05:15:10.656Z,11.71
2022-11-16T05:17:37.675Z,11.67
2022-11-16T05:20:29.322Z,11.68
2022-11-16T05:23:01.832Z,11.69
2022-11-16T05:25:36.691Z,11.65
2022-11-16T05:28:06.976Z,11.62
2022-11-16T05:30:38.133Z,11.63
2022-11-16T05:33:05.253Z,11.59
2022-11-16T05:35:36.363Z,11.57
2022-11-16T05:38:03.377Z,11.60
2022-11-16T05:40:34.403Z,11.60
2022-11-16T05:43:01.671Z,11.62
2022-11-16T05:45:32.927Z,11.60
2022-11-16T05:48:01.122Z,11.60
2022-11-16T05:50:28.620Z,11.60
2022-11-16T05:53:11.652Z,11.61
2022-11-16T05:55:39.273Z,11.61
2022-11-16T05:58:07.936Z,11.61
2022-11-16T06:00:35.947Z,11.63
2022-11-16T06:03:04.263Z,11.66
2022-11-16T06:05:40.288Z,11.68
2022-11-16T06:08:08.818Z,11.70
2022-11-16T06:10:37.123Z,11.72
2022-11-16T06:13:05.528Z,11.73
2022-11-16T06:15:38.374Z,11.74
2022-11-16T06:18:07.240Z,11.74
2022-11-16T06:20:35.091Z,11.74
2022-11-16T06:23:02.660Z,11.74
2022-11-16T06:25:30.911Z,11.73
2022-11-16T06:28:00.480Z,11.72
2022-11-16T06:30:31.468Z,11.69
2022-11-16T06:32:58.392Z,11.72
2022-11-16T06:35:25.565Z,11.72
2022-11-16T06:37:53.310Z,11.73
2022-11-16T06:40:21.804Z,11.74
2022-11-16T06:42:49.654Z,11.76
2022-11-16T06:45:17.729Z,11.74
2022-11-16T06:47:50.192Z,11.77
2022-11-16T06:50:21.271Z,11.78
2022-11-16T06:52:49.805Z,11.80
2022-11-16T06:55:19.603Z,11.82
2022-11-16T06:57:48.044Z,11.83
2022-11-16T07:00:17.578Z,11.84
2022-11-16T07:02:46.260Z,11.83
2022-11-16T07:05:17.315Z,11.78
2022-11-16T07:07:46.268Z,11.78
2022-11-16T07:10:13.948Z,11.77
2022-11-16T07:12:42.440Z,11.79
2022-11-16T07:15:10.206Z,11.80
2022-11-16T07:17:40.358Z,11.80
2022-11-16T07:20:08.849Z,11.82
2022-11-16T07:22:36.383Z,11.83
2022-11-16T07:25:04.117Z,11.83
2022-11-16T07:27:31.142Z,11.84
2022-11-16T07:29:58.866Z,11.84
2022-11-16T07:32:45.603Z,11.83
2022-11-16T07:35:36.222Z,11.83
2022-11-16T07:38:03.324Z,11.83
2022-11-16T07:40:31.203Z,11.83
2022-11-16T07:42:59.268Z,11.82
2022-11-16T07:45:27.354Z,11.81
2022-11-16T07:47:58.774Z,11.81
2022-11-16T07:50:46.109Z,11.81
2022-11-16T07:53:13.131Z,11.81
2022-11-16T07:55:40.362Z,11.79
2022-11-16T07:58:08.108Z,11.78
2022-11-16T08:00:35.502Z,11.78
2022-11-16T08:03:11.844Z,11.76
2022-11-16T08:05:39.007Z,11.76
2022-11-16T08:08:06.413Z,11.72
2022-11-16T08:10:36.695Z,11.74
2022-11-16T08:13:04.528Z,11.69
2022-11-16T08:15:32.511Z,11.66
2022-11-16T08:18:03.002Z,11.67
2022-11-16T08:20:31.365Z,11.63
2022-11-16T08:23:00.904Z,11.62
2022-11-16T08:25:31.009Z,11.64
2022-11-16T08:27:58.061Z,11.61
2022-11-16T08:30:25.260Z,11.60
2022-11-16T08:32:53.502Z,11.62
2022-11-16T08:35:21.831Z,11.64
2022-11-16T08:37:49.594Z,11.65
2022-11-16T08:40:23.551Z,11.67
2022-11-16T08:42:52.699Z,11.65
2022-11-16T08:45:19.730Z,11.65
2022-11-16T08:47:46.759Z,11.68
2022-11-16T08:50:14.150Z,11.71
2022-11-16T08:52:41.245Z,11.71
2022-11-16T08:55:08.844Z,11.67
2022-11-16T08:57:36.449Z,11.66
2022-11-16T09:00:08.888Z,11.68
2022-11-16T09:02:35.814Z,11.64
2022-11-16T09:05:03.972Z,11.65
2022-11-16T09:07:31.590Z,11.69
2022-11-16T09:09:59.206Z,11.69
2022-11-16T09:12:26.552Z,11.69
2022-11-16T09:14:53.490Z,11.70
2022-11-16T09:17:23.244Z,11.69
2022-11-16T09:19:50.458Z,11.69
2022-11-16T09:22:17.452Z,11.69
2022-11-16T09:24:44.386Z,11.75
2022-11-16T09:27:11.491Z,11.73
2022-11-16T09:29:38.385Z,11.73
2022-11-16T09:32:05.509Z,11.75
2022-11-16T09:34:34.703Z,11.79
2022-11-16T09:37:02.249Z,11.81
2022-11-16T09:39:32.585Z,11.83
2022-11-16T09:42:51.756Z,11.86
2022-11-16T09:45:32.254Z,11.88
2022-11-16T09:48:04.137Z,11.90
2022-11-16T09:50:53.597Z,11.95
2022-11-16T09:53:24.521Z,11.93
2022-11-16T09:55:59.067Z,11.96
2022-11-16T09:58:41.830Z,11.95
2022-11-16T10:01:31.717Z,11.93
2022-11-16T10:04:13.481Z,11.93
2022-11-16T10:06:51.875Z,11.96
2022-11-16T10:09:20.604Z,11.93
2022-11-16T10:12:02.962Z,11.93
2022-11-16T10:15:15.950Z,11.93
2022-11-16T10:18:17.610Z,11.96
2022-11-16T10:21:13.560Z,12.01
2022-11-16T10:24:02.932Z,12.01
2022-11-16T10:26:59.191Z,12.09
2022-11-16T10:29:43.205Z,12.14
2022-11-16T10:32:29.020Z,12.17
2022-11-16T10:35:11.988Z,12.19
2022-11-16T10:37:49.152Z,12.22
2022-11-16T10:40:31.044Z,12.21
2022-11-16T10:43:17.942Z,12.25
2022-11-16T10:46:00.414Z,12.27
2022-11-16T10:48:52.170Z,12.31
2022-11-16T10:51:19.564Z,12.33
2022-11-16T10:53:47.049Z,12.35
2022-11-16T10:56:25.243Z,12.34
2022-11-16T10:58:59.878Z,12.38
2022-11-16T11:01:38.216Z,12.39
2022-11-16T11:04:20.606Z,12.40
2022-11-16T11:06:53.528Z,12.40
2022-11-16T11:09:36.995Z,12.40
2022-11-16T11:12:36.058Z,12.35
2022-11-16T11:15:25.913Z,12.26
2022-11-16T11:18:25.925Z,12.29
2022-11-16T11:21:19.316Z,12.32
2022-11-16T11:23:54.264Z,12.28
2022-11-16T11:26:39.794Z,12.31
2022-11-16T11:29:30.610Z,12.35
2022-11-16T11:32:06.954Z,12.41
2022-11-16T11:34:47.513Z,12.47
2022-11-16T11:37:27.882Z,12.49
2022-11-16T11:40:11.042Z,12.46
2022-11-16T11:42:52.124Z,12.44
2022-11-16T11:45:22.499Z,12.50
2022-11-16T11:48:01.249Z,12.52
2022-11-16T11:50:53.993Z,12.56
2022-11-16T11:53:23.888Z,12.60
2022-11-16T11:56:00.586Z,12.65
2022-11-16T11:58:35.840Z,12.65
2022-11-16T12:01:27.465Z,12.69
2022-11-16T12:04:31.842Z,12.70
2022-11-16T12:07:25.511Z,12.74
2022-11-16T12:10:10.495Z,12.70
2022-11-16T12:13:01.651Z,12.71
2022-11-16T12:15:51.820Z,12.69
2022-11-16T12:18:45.817Z,12.58
2022-11-16T12:21:31.927Z,12.64
2022-11-16T12:24:28.210Z,12.64
2022-11-16T12:27:47.433Z,12.66
2022-11-16T12:30:21.782Z,12.62
2022-11-16T12:33:16.067Z,12.57
2022-11-16T12:36:02.321Z,12.60
2022-11-16T12:39:24.617Z,12.60
2022-11-16T12:42:33.075Z,12.55
2022-11-16T12:45:44.599Z,12.60
2022-11-16T12:48:19.335Z,12.60
2022-11-16T12:51:26.387Z,12.62
2022-11-16T12:54:34.641Z,12.60
2022-11-16T12:57:25.952Z,12.60
2022-11-16T13:00:12.770Z,12.61
2022-11-16T13:02:57.992Z,12.59
2022-11-16T13:05:49.220Z,12.57
2022-11-16T13:08:40.669Z,12.57
2022-11-16T13:11:23.633Z,12.60
2022-11-16T13:13:57.291Z,12.60
2022-11-16T13:16:25.421Z,12.59
2022-11-16T13:18:54.466Z,12.60
2022-11-16T13:21:30.371Z,12.63
2022-11-16T13:24:23.779Z,12.64
2022-11-16T13:26:53.601Z,12.59
2022-11-16T13:29:39.878Z,12.65
2022-11-16T13:32:15.861Z,12.67
2022-11-16T13:34:43.653Z,12.69
2022-11-16T13:37:38.545Z,12.74
2022-11-16T13:40:05.537Z,12.78
2022-11-16T13:42:38.302Z,12.82
2022-11-16T13:45:22.749Z,12.85
2022-11-16T13:47:51.792Z,12.76
2022-11-16T13:50:33.107Z,12.82
2022-11-16T13:56:07.455Z,12.79
2022-11-16T13:58:38.098Z,12.79
2022-11-16T14:01:10.667Z,12.81
2022-11-16T14:03:46.140Z,12.86
2022-11-16T14:06:12.988Z,12.77
2022-11-16T14:08:39.867Z,12.79
2022-11-16T14:11:39.825Z,12.83
2022-11-16T14:14:11.525Z,12.85
2022-11-16T14:16:50.070Z,12.84
2022-11-16T14:19:49.321Z,12.89
2022-11-16T14:22:31.337Z,12.94
2022-11-16T14:25:09.212Z,13.01
2022-11-16T14:27:59.771Z,13.01
2022-11-16T14:30:49.004Z,13.02
2022-11-16T14:33:31.401Z,13.01
2022-11-16T14:35:59.776Z,13.00
2022-11-16T14:38:34.842Z,12.94
2022-11-16T14:41:06.830Z,12.92
2022-11-16T14:43:43.689Z,12.92
2022-11-16T14:46:30.565Z,12.92
2022-11-16T14:49:01.470Z,12.90
2022-11-16T14:51:44.284Z,12.91
2022-11-16T14:54:28.592Z,12.89
2022-11-16T14:57:01.198Z,12.89
2022-11-16T14:59:30.552Z,12.90
2022-11-16T15:02:02.632Z,12.91
2022-11-16T15:04:30.761Z,12.88
2022-11-16T15:07:06.615Z,12.88
2022-11-16T15:09:42.019Z,12.88
2022-11-16T15:12:41.665Z,12.91
2022-11-16T15:15:16.999Z,12.85
2022-11-16T15:18:03.783Z,12.85
2022-11-16T15:20:34.072Z,12.85
2022-11-16T15:23:03.934Z,12.85
2022-11-16T15:25:45.797Z,12.86
2022-11-16T15:28:28.883Z,12.87
2022-11-16T15:30:58.359Z,12.88
2022-11-16T15:33:33.403Z,12.88
2022-11-16T15:36:00.754Z,12.88
2022-11-16T15:38:33.121Z,12.89
2022-11-16T15:41:03.658Z,12.89
2022-11-16T15:44:11.742Z,12.87
2022-11-16T15:46:35.457Z,12.86
2022-11-16T15:49:02.981Z,12.88
2022-11-16T15:51:31.234Z,12.86
2022-11-16T15:54:53.670Z,12.87
2022-11-16T15:57:23.255Z,12.87
2022-11-16T15:59:57.316Z,12.87
2022-11-16T16:02:30.457Z,12.84
2022-11-16T16:04:57.478Z,12.86
2022-11-16T16:07:42.511Z,12.85
2022-11-16T16:10:27.543Z,12.87
2022-11-16T16:12:57.681Z,12.83
2022-11-16T16:15:34.051Z,12.83
2022-11-16T16:18:03.240Z,12.84
2022-11-16T16:20:32.468Z,12.85
2022-11-16T16:23:28.623Z,12.86
2022-11-16T16:25:55.560Z,12.86
2022-11-16T16:28:22.403Z,12.86
2022-11-16T16:30:51.461Z,12.86
2022-11-16T16:33:22.842Z,12.88
2022-11-16T16:35:50.976Z,12.87
2022-11-16T16:38:17.956Z,12.86
2022-11-16T16:40:44.902Z,12.86
2022-11-16T16:43:11.770Z,12.85
2022-11-16T16:45:41.923Z,12.84
2022-11-16T16:48:09.701Z,12.82
2022-11-16T16:50:37.493Z,12.82
2022-11-16T16:53:05.081Z,12.82
2022-11-16T16:55:37.049Z,12.81
2022-11-16T16:58:05.148Z,12.82
2022-11-16T17:00:32.733Z,12.81
2022-11-16T17:02:59.722Z,12.82
2022-11-16T17:05:26.990Z,12.81
2022-11-16T17:07:57.011Z,12.82
2022-11-16T17:10:24.509Z,12.80
2022-11-16T17:12:56.264Z,12.79
2022-11-16T17:15:23.912Z,12.78
2022-11-16T17:17:50.938Z,12.78
2022-11-16T17:20:19.271Z,12.79
2022-11-16T17:22:46.769Z,12.81
2022-11-16T17:25:14.916Z,12.79
2022-11-16T17:27:41.866Z,12.80
2022-11-16T17:30:10.019Z,12.79
2022-11-16T17:32:37.068Z,12.78
2022-11-16T17:35:04.247Z,12.79
2022-11-16T17:37:32.088Z,12.81
2022-11-16T17:39:59.402Z,12.79
2022-11-16T17:42:26.285Z,12.79
2022-11-16T17:44:53.950Z,12.80
2022-11-16T17:47:20.901Z,12.80
2022-11-16T17:49:47.879Z,12.80
2022-11-16T17:52:14.773Z,12.82
2022-11-16T17:54:41.742Z,12.83
2022-11-16T17:57:09.096Z,12.83
2022-11-16T17:59:36.063Z,12.80
2022-11-16T18:02:03.041Z,12.81
2022-11-16T18:04:30.066Z,12.82
2022-11-16T18:06:57.195Z,12.83
2022-11-16T18:09:24.331Z,12.80
2022-11-16T18:11:51.233Z,12.81
2022-11-16T18:14:18.238Z,12.83
2022-11-16T18:16:47.829Z,12.83
2022-11-16T18:19:17.753Z,12.84
2022-11-16T18:21:45.893Z,12.83
2022-11-16T18:24:13.833Z,12.83
2022-11-16T18:26:41.613Z,12.83
2022-11-16T18:29:12.806Z,12.82
2022-11-16T18:31:40.715Z,12.81
2022-11-16T18:34:08.038Z,12.78
2022-11-16T18:36:35.012Z,12.77
2022-11-16T18:39:01.966Z,12.75
2022-11-16T18:41:30.390Z,12.73
2022-11-16T18:44:02.108Z,12.71
2022-11-16T18:46:32.944Z,12.68
2022-11-16T18:49:00.242Z,12.66
2022-11-16T18:51:29.111Z,12.66
2022-11-16T18:53:56.878Z,12.63
2022-11-16T18:56:25.007Z,12.61
2022-11-16T18:58:53.157Z,12.57
2022-11-16T19:01:24.663Z,12.54
2022-11-16T19:03:53.275Z,12.49
2022-11-16T19:06:21.230Z,12.45
2022-11-16T19:08:56.392Z,12.40
2022-11-16T19:11:24.478Z,12.36
2022-11-16T19:13:55.779Z,12.34
2022-11-16T19:16:25.364Z,12.31
2022-11-16T19:18:53.226Z,12.28
2022-11-16T19:21:22.057Z,12.26
2022-11-16T19:23:52.826Z,12.22
2022-11-16T19:26:27.760Z,12.20
2022-11-16T19:28:55.102Z,12.15
2022-11-16T19:31:27.433Z,12.10
2022-11-16T19:34:04.943Z,12.06
2022-11-16T19:36:35.005Z,12.04
2022-11-16T19:39:02.564Z,12.02
2022-11-16T19:41:29.685Z,12.00
2022-11-16T19:44:00.220Z,11.98
2022-11-16T19:46:30.019Z,11.96
2022-11-16T19:48:58.248Z,11.93
2022-11-16T19:51:31.830Z,11.92
2022-11-16T19:54:01.170Z,11.89
2022-11-16T19:56:28.692Z,11.87
2022-11-16T19:58:56.116Z,11.86
2022-11-16T20:01:27.989Z,11.84
2022-11-16T20:03:58.154Z,11.80
2022-11-16T20:06:29.319Z,11.78
2022-11-16T20:09:00.934Z,11.73
2022-11-16T20:11:31.223Z,11.68
2022-11-16T20:13:58.741Z,11.64
2022-11-16T20:16:33.925Z,11.61
2022-11-16T20:19:04.933Z,11.58
2022-11-16T20:21:41.300Z,11.55
2022-11-16T20:24:15.077Z,11.53
2022-11-16T20:26:45.985Z,11.51
2022-11-16T20:29:15.292Z,11.48
2022-11-16T20:31:45.473Z,11.44
2022-11-16T20:34:15.609Z,11.39
2022-11-16T20:36:46.166Z,11.38
2022-11-16T20:39:15.495Z,11.37
2022-11-16T20:41:43.924Z,11.35
2022-11-16T20:44:16.533Z,11.33
2022-11-16T20:46:45.241Z,11.32
2022-11-16T20:49:13.139Z,11.29
2022-11-16T20:51:40.353Z,11.26
2022-11-16T20:54:08.069Z,11.21
2022-11-16T20:56:35.412Z,11.20
2022-11-16T20:59:02.944Z,11.17
2022-11-16T21:01:31.979Z,11.14
2022-11-16T21:04:05.348Z,11.10
2022-11-16T21:06:33.313Z,11.08
2022-11-16T21:09:00.797Z,11.07
2022-11-16T21:11:30.810Z,11.05
2022-11-16T21:14:16.235Z,11.05
2022-11-16T21:16:44.386Z,11.03
2022-11-16T21:19:12.730Z,10.99
2022-11-16T21:21:40.882Z,10.94
2022-11-16T21:24:09.255Z,10.90
2022-11-16T21:26:37.387Z,10.89
2022-11-16T21:29:05.498Z,10.88
2022-11-16T21:31:36.281Z,10.87
2022-11-16T21:34:03.781Z,10.86
2022-11-16T21:36:32.934Z,10.85
2022-11-16T21:39:00.287Z,10.84
2022-11-16T21:41:28.259Z,10.81
2022-11-16T21:43:55.510Z,10.81
2022-11-16T21:46:25.889Z,10.77
2022-11-16T21:48:55.475Z,10.75
2022-11-16T21:51:26.225Z,10.74
2022-11-16T21:53:53.600Z,10.70
2022-11-16T21:56:23.885Z,10.67
2022-11-16T21:58:55.341Z,10.67
2022-11-16T22:01:24.021Z,10.65
2022-11-16T22:04:11.209Z,10.61
2022-11-16T22:06:56.700Z,10.58
2022-11-16T22:09:23.796Z,10.53
2022-11-16T22:11:50.789Z,10.51
2022-11-16T22:14:17.824Z,10.48
2022-11-16T22:16:44.931Z,10.46
2022-11-16T22:19:11.895Z,10.43
2022-11-16T22:21:38.853Z,10.41
2022-11-16T22:24:06.380Z,10.42
2022-11-16T22:26:33.813Z,10.40
2022-11-16T22:29:00.890Z,10.38
2022-11-16T22:31:28.246Z,10.36
2022-11-16T22:33:55.531Z,10.35
2022-11-16T22:36:22.446Z,10.35
2022-11-16T22:38:49.405Z,10.33
2022-11-16T22:41:16.353Z,10.34
2022-11-16T22:43:43.315Z,10.34
2022-11-16T22:46:11.094Z,10.32
2022-11-16T22:48:40.288Z,10.31
2022-11-16T22:51:18.736Z,10.28
2022-11-16T22:53:46.201Z,10.27
2022-11-16T22:56:14.147Z,10.24
2022-11-16T22:58:41.382Z,10.21
2022-11-16T23:01:09.695Z,10.21
2022-11-16T23:03:37.781Z,10.18
2022-11-16T23:06:06.577Z,10.17
2022-11-16T23:08:35.231Z,10.15
2022-11-16T23:11:23.505Z,10.14
2022-11-16T23:14:11.028Z,10.12
2022-11-16T23:16:39.247Z,10.08
2022-11-16T23:19:26.130Z,10.05
2022-11-16T23:22:11.657Z,10.02
2022-11-16T23:24:57.690Z,9.99
2022-11-16T23:27:31.252Z,9.96
2022-11-16T23:30:10.776Z,9.92
2022-11-16T23:32:39.349Z,9.91
2022-11-16T23:35:06.638Z,9.82
2022-11-16T23:37:33.652Z,9.81
2022-11-16T23:40:00.718Z,9.83
2022-11-16T23:42:46.149Z,9.84
2022-11-16T23:45:13.218Z,9.86
2022-11-16T23:47:40.243Z,9.81
2022-11-16T23:50:07.625Z,9.77
2022-11-16T23:52:34.552Z,9.75
2022-11-16T23:55:01.522Z,9.76
2022-11-16T23:57:28.493Z,9.77
2022-11-16T23:59:55.481Z,9.77
